Time;durP1;ratioP1;P1;durP2;ratioP2;P2;SDS_P1;SDS_P2;PMS_P1;PMS_P2;Temp;Humidity;BMP_temperature;BMP_pressure;BME280_temperature;BME280_humidity;BME280_pressure;Samples;Min_cycle;Max_cycle;Signal;HPM_P1;HPM_P2
2020/12/13 00:00:16;;;;;;;6.63;2.60;;;22.20;58.80;;;;;;5081363;28;20034;-69
2020/12/13 00:03:22;;;;;;;6.57;3.42;;;22.10;58.90;;;;;;5080534;28;20391;-69
2020/12/13 00:06:08;;;;;;;;;;;22.10;59.50;;;;;;5078404;28;20027;-68
2020/12/13 00:09:14;;;;;;;9.57;2.33;;;22.10;59.00;;;;;;5078821;28;19912;-71
2020/12/13 00:12:23;;;;;;;10.02;2.05;;;22.10;58.80;;;;;;5077282;28;20056;-69
2020/12/13 00:15:29;;;;;;;5.55;2.75;;;22.00;58.40;;;;;;5083767;28;20039;-68
2020/12/13 00:18:35;;;;;;;5.47;2.13;;;22.00;58.10;;;;;;5077562;28;20085;-68
2020/12/13 00:21:41;;;;;;;3.70;2.00;;;22.00;57.90;;;;;;5077404;28;20037;-68
2020/12/13 00:24:47;;;;;;;9.07;2.75;;;22.00;57.70;;;;;;5080602;28;20028;-69
2020/12/13 00:27:53;;;;;;;4.00;1.75;;;22.00;57.60;;;;;;5079263;28;20031;-68
2020/12/13 00:30:59;;;;;;;6.15;2.38;;;21.90;57.60;;;;;;5078331;28;20907;-70
2020/12/13 00:34:05;;;;;;;9.77;2.75;;;21.90;57.50;;;;;;5079163;28;20023;-68
2020/12/13 00:37:11;;;;;;;3.42;1.52;;;21.90;57.50;;;;;;5083321;28;20103;-68
2020/12/13 00:40:17;;;;;;;5.47;1.77;;;21.90;57.50;;;;;;5077600;28;20108;-68
2020/12/13 00:43:23;;;;;;;4.95;2.28;;;21.80;57.50;;;;;;5078639;28;20467;-68
2020/12/13 00:46:29;;;;;;;8.27;2.30;;;21.80;57.50;;;;;;5082939;28;20024;-70
2020/12/13 00:49:36;;;;;;;6.85;1.80;;;21.80;57.50;;;;;;5076367;28;20016;-68
2020/12/13 00:52:42;;;;;;;4.65;1.95;;;21.80;57.40;;;;;;5076240;28;20020;-69
2020/12/13 00:55:48;;;;;;;6.93;1.73;;;21.80;57.30;;;;;;5079928;28;20084;-68
2020/12/13 00:58:54;;;;;;;6.00;1.63;;;21.80;57.20;;;;;;5083474;28;20020;-68
2020/12/13 01:02:00;;;;;;;7.53;2.08;;;21.70;57.10;;;;;;5077506;28;20546;-68
2020/12/13 01:05:06;;;;;;;3.17;1.42;;;21.70;57.10;;;;;;5077293;28;20016;-68
2020/12/13 01:08:12;;;;;;;6.32;1.55;;;21.70;57.20;;;;;;5079578;28;20058;-68
2020/12/13 01:11:18;;;;;;;6.57;1.42;;;21.70;57.30;;;;;;5079885;28;20032;-68
2020/12/13 01:14:25;;;;;;;7.72;2.17;;;21.70;57.40;;;;;;5079199;28;20395;-68
2020/12/13 01:17:31;;;;;;;6.65;1.80;;;21.70;57.60;;;;;;5078175;28;20017;-69
2020/12/13 01:20:37;;;;;;;6.45;1.65;;;21.70;57.80;;;;;;5083870;28;20034;-68
2020/12/13 01:23:43;;;;;;;3.67;1.20;;;21.60;57.80;;;;;;5081574;28;20098;-69
2020/12/13 01:26:49;;;;;;;8.02;1.80;;;21.60;58.00;;;;;;5076261;28;20025;-69
2020/12/13 01:29:55;;;;;;;4.80;1.45;;;21.60;58.10;;;;;;5075236;28;20032;-68
2020/12/13 01:33:01;;;;;;;6.70;1.70;;;21.60;58.20;;;;;;5079245;28;20032;-68
2020/12/13 01:36:07;;;;;;;4.90;1.30;;;21.50;58.30;;;;;;5076878;28;20093;-68
2020/12/13 01:39:13;;;;;;;6.38;2.33;;;21.50;58.40;;;;;;5074119;28;20520;-68
2020/12/13 01:42:19;;;;;;;7.82;2.40;;;21.50;58.50;;;;;;5082347;28;20478;-69
2020/12/13 01:45:25;;;;;;;16.35;2.58;;;21.50;58.50;;;;;;5075949;28;20024;-68
2020/12/13 01:48:31;;;;;;;6.65;2.28;;;21.50;58.50;;;;;;5073341;28;20028;-68
2020/12/13 01:52:06;;;;;;;12.43;2.72;;;21.50;58.60;;;;;;5074212;28;20016;-68
2020/12/13 01:55:25;;;;;;;9.13;3.30;;;21.50;58.60;;;;;;5081075;28;20117;-68
2020/12/13 01:58:31;;;;;;;5.43;2.40;;;21.40;58.60;;;;;;5078199;28;20032;-68
2020/12/13 02:01:37;;;;;;;7.45;2.47;;;21.40;58.60;;;;;;5076454;28;20434;-68
2020/12/13 02:04:44;;;;;;;9.32;2.72;;;21.40;58.60;;;;;;5080141;28;20050;-68
2020/12/13 02:07:50;;;;;;;4.97;2.00;;;21.40;58.60;;;;;;5077014;28;20454;-69
2020/12/13 02:10:56;;;;;;;10.50;3.33;;;21.40;58.60;;;;;;5077372;28;20016;-68
2020/12/13 02:14:02;;;;;;;8.32;2.85;;;21.40;58.70;;;;;;5079352;28;20052;-69
2020/12/13 02:17:08;;;;;;;9.45;4.80;;;21.30;58.70;;;;;;5078274;28;20039;-69
2020/12/13 02:20:14;;;;;;;10.52;2.67;;;21.30;58.80;;;;;;5077904;28;20402;-69
2020/12/13 02:23:20;;;;;;;7.60;2.97;;;21.30;58.70;;;;;;5075226;28;20051;-68
2020/12/13 02:26:29;;;;;;;5.13;3.13;;;21.30;58.70;;;;;;5075432;28;20024;-69
2020/12/13 02:29:35;;;;;;;5.20;3.05;;;21.30;58.70;;;;;;5077487;28;20024;-69
2020/12/13 02:32:41;;;;;;;6.75;2.05;;;21.20;58.70;;;;;;5077951;28;20693;-70
2020/12/13 02:35:47;;;;;;;7.70;3.05;;;21.20;59.30;;;;;;5075257;28;20112;-68
2020/12/13 02:38:53;;;;;;;7.28;2.28;;;21.30;58.80;;;;;;5077950;28;20078;-68
2020/12/13 02:41:59;;;;;;;7.03;2.05;;;21.20;58.80;;;;;;5077294;28;20048;-68
2020/12/13 02:45:05;;;;;;;6.70;2.58;;;21.20;58.80;;;;;;5074964;28;20017;-69
2020/12/13 02:48:11;;;;;;;8.02;3.13;;;21.20;58.80;;;;;;5077172;28;20024;-69
2020/12/13 02:51:17;;;;;;;6.82;2.60;;;21.20;58.90;;;;;;5080776;28;20437;-68
2020/12/13 02:54:23;;;;;;;6.88;1.92;;;21.20;58.90;;;;;;5077115;28;20027;-68
2020/12/13 02:57:29;;;;;;;6.00;2.10;;;21.20;59.00;;;;;;5074783;28;20021;-70
2020/12/13 03:00:35;;;;;;;5.72;2.90;;;21.20;58.90;;;;;;5076642;28;20032;-68
2020/12/13 03:03:41;;;;;;;12.10;3.20;;;21.20;59.00;;;;;;5075168;28;20738;-68
2020/12/13 03:06:47;;;;;;;10.93;2.47;;;21.10;59.10;;;;;;5074486;28;20063;-68
2020/12/13 03:09:53;;;;;;;14.52;2.20;;;21.10;59.00;;;;;;5078301;28;20500;-69
2020/12/13 03:12:59;;;;;;;10.35;2.55;;;21.10;59.00;;;;;;5076810;28;20098;-68
2020/12/13 03:16:06;;;;;;;9.02;2.15;;;21.10;59.10;;;;;;5075224;28;20032;-68
2020/12/13 03:18:51;;;;;;;;;;;21.00;59.00;;;;;;5080352;28;20055;-68
2020/12/13 03:21:58;;;;;;;7.13;2.08;;;21.00;59.10;;;;;;5075685;28;19916;-68
2020/12/13 03:25:04;;;;;;;11.73;2.83;;;21.10;59.10;;;;;;5077480;28;20017;-68
2020/12/13 03:28:10;;;;;;;9.75;3.78;;;21.00;59.10;;;;;;5077591;28;20498;-69
2020/12/13 03:31:16;;;;;;;14.57;6.28;;;21.00;59.10;;;;;;5080873;28;20040;-71
2020/12/13 03:34:22;;;;;;;11.05;4.38;;;21.00;59.20;;;;;;5080220;28;20028;-68
2020/12/13 03:37:28;;;;;;;10.80;3.70;;;21.00;59.30;;;;;;5078457;28;20031;-68
2020/12/13 03:40:34;;;;;;;9.98;2.97;;;21.00;59.40;;;;;;5081343;28;20039;-68
2020/12/13 03:43:40;;;;;;;12.20;3.45;;;21.00;59.40;;;;;;5078818;28;20029;-68
2020/12/13 03:46:46;;;;;;;9.73;2.42;;;21.00;59.40;;;;;;5080353;28;20085;-68
2020/12/13 03:49:52;;;;;;;10.82;2.42;;;21.00;59.50;;;;;;5079745;28;20043;-70
2020/12/13 03:52:58;;;;;;;6.97;2.20;;;20.90;59.50;;;;;;5083337;28;20044;-70
2020/12/13 03:56:04;;;;;;;6.45;2.05;;;21.00;59.50;;;;;;5080791;28;20047;-71
2020/12/13 03:59:10;;;;;;;5.72;2.22;;;20.90;59.60;;;;;;5079813;28;20035;-69
2020/12/13 04:02:16;;;;;;;9.65;5.03;;;20.90;59.60;;;;;;5077532;28;20089;-71
2020/12/13 04:05:22;;;;;;;17.38;12.82;;;20.90;59.70;;;;;;5079992;28;20043;-68
2020/12/13 04:08:29;;;;;;;14.93;10.25;;;20.90;59.70;;;;;;5079918;28;21067;-68
2020/12/13 04:11:35;;;;;;;12.30;7.05;;;20.90;60.30;;;;;;5078275;28;20025;-69
2020/12/13 04:14:41;;;;;;;12.43;6.63;;;20.90;59.70;;;;;;5080340;28;20009;-70
2020/12/13 04:17:47;;;;;;;11.77;6.82;;;20.90;59.60;;;;;;5081220;28;20495;-69
2020/12/13 04:20:34;;;;;;;;;;;20.90;59.50;;;;;;5079753;28;20491;-69
2020/12/13 04:23:40;;;;;;;11.88;5.20;;;20.90;59.60;;;;;;5084908;28;19908;-70
2020/12/13 04:26:46;;;;;;;13.52;5.95;;;20.90;59.60;;;;;;5080325;28;20089;-67
2020/12/13 04:29:52;;;;;;;12.40;4.63;;;20.90;59.70;;;;;;5078232;28;20071;-69
2020/12/13 04:32:58;;;;;;;18.00;13.50;;;20.80;59.80;;;;;;5079725;28;20029;-69
2020/12/13 04:36:04;;;;;;;17.17;13.15;;;20.90;59.90;;;;;;5082548;28;20032;-68
2020/12/13 04:39:10;;;;;;;15.52;10.55;;;20.80;60.10;;;;;;5077223;28;20020;-68
2020/12/13 04:42:16;;;;;;;11.85;7.15;;;20.90;60.30;;;;;;5078250;28;20035;-68
2020/12/13 04:45:22;;;;;;;13.48;5.95;;;20.90;60.50;;;;;;5082904;28;20728;-69
2020/12/13 04:48:44;;;;;;;10.20;5.30;;;20.90;60.60;;;;;;5075970;28;20490;-69
2020/12/13 04:51:52;;;;;;;7.07;4.72;;;20.90;60.80;;;;;;5077136;28;20032;-69
2020/12/13 04:55:08;;;;;;;7.35;3.65;;;20.90;60.90;;;;;;5080060;28;20467;-70
2020/12/13 04:58:15;;;;;;;8.95;4.28;;;20.90;60.90;;;;;;5079261;28;20034;-69
2020/12/13 05:01:24;;;;;;;7.10;3.00;;;20.90;61.00;;;;;;5078986;28;20028;-68
2020/12/13 05:04:33;;;;;;;6.47;3.05;;;21.00;61.30;;;;;;5078926;28;20020;-68
2020/12/13 05:07:39;;;;;;;9.07;2.28;;;20.90;61.60;;;;;;5077088;28;20024;-73
2020/12/13 05:10:45;;;;;;;7.63;2.35;;;20.90;62.60;;;;;;5076761;28;20115;-69
2020/12/13 05:13:51;;;;;;;5.13;2.08;;;20.90;62.20;;;;;;5084761;28;20048;-69
2020/12/13 05:16:57;;;;;;;7.45;4.57;;;21.00;62.40;;;;;;5086280;28;20474;-72
2020/12/13 05:20:03;;;;;;;6.90;5.15;;;21.00;62.50;;;;;;5086276;28;20077;-71
2020/12/13 05:23:09;;;;;;;12.07;4.68;;;21.00;62.50;;;;;;5086537;28;20027;-75
2020/12/13 05:26:15;;;;;;;7.75;4.10;;;21.00;62.60;;;;;;5085200;28;20076;-72
2020/12/13 05:29:29;;;;;;;5.60;2.63;;;21.10;62.90;;;;;;5085469;28;20482;-73
2020/12/13 05:32:35;;;;;;;10.45;3.05;;;21.10;63.00;;;;;;5083142;28;20117;-73
2020/12/13 05:35:21;;;;;;;;;;;21.10;63.10;;;;;;5082430;28;20024;-75
2020/12/13 05:38:27;;;;;;;5.53;2.63;;;21.20;63.10;;;;;;5086060;28;20350;-75
2020/12/13 05:41:38;;;;;;;9.23;2.53;;;21.20;63.10;;;;;;5086224;28;20518;-72
2020/12/13 05:45:05;;;;;;;12.20;2.95;;;21.20;63.20;;;;;;5085460;28;20059;-74
2020/12/13 05:48:26;;;;;;;13.68;2.72;;;21.30;63.40;;;;;;5084981;28;20111;-75
2020/12/13 05:51:41;;;;;;;13.55;4.25;;;21.30;63.40;;;;;;5084678;28;20133;-75
2020/12/13 05:54:47;;;;;;;11.77;3.55;;;21.40;63.40;;;;;;5081139;28;20028;-75
2020/12/13 05:57:53;;;;;;;11.10;5.00;;;21.40;63.30;;;;;;5084882;28;20028;-73
2020/12/13 06:00:59;;;;;;;10.70;2.38;;;21.50;64.10;;;;;;5083991;28;20546;-75
2020/12/13 06:04:05;;;;;;;8.48;2.55;;;21.50;63.90;;;;;;5083987;28;20024;-73
2020/12/13 06:07:11;;;;;;;6.30;3.05;;;21.50;63.80;;;;;;5082776;28;20023;-73
2020/12/13 06:10:23;;;;;;;8.65;3.00;;;21.60;63.80;;;;;;5086038;28;20051;-77
2020/12/13 06:13:30;;;;;;;10.52;2.85;;;21.60;63.50;;;;;;5082120;28;20028;-72
2020/12/13 06:16:36;;;;;;;5.82;2.80;;;21.70;63.60;;;;;;5082662;28;20016;-75
2020/12/13 06:19:42;;;;;;;9.90;3.33;;;21.80;63.20;;;;;;5083851;28;21328;-73
2020/12/13 06:22:48;;;;;;;5.18;2.22;;;21.90;62.60;;;;;;5084880;28;20453;-73
2020/12/13 06:25:54;;;;;;;11.73;2.65;;;21.90;62.20;;;;;;5083080;28;20020;-72
2020/12/13 06:29:00;;;;;;;8.55;2.10;;;22.00;62.20;;;;;;5085471;28;20051;-74
2020/12/13 06:32:06;;;;;;;12.90;4.82;;;22.00;62.10;;;;;;5081358;28;20045;-72
2020/12/13 06:35:12;;;;;;;50.28;40.40;;;22.10;62.20;;;;;;5081761;28;20028;-71
2020/12/13 06:38:19;;;;;;;20.33;6.35;;;22.10;62.30;;;;;;5083407;28;20527;-73
2020/12/13 06:41:28;;;;;;;12.68;3.63;;;22.30;62.50;;;;;;5085550;28;20039;-76
2020/12/13 06:43:54;;;;;;;9.80;2.92;;;22.40;61.90;;;;;;5083047;28;20067;-70
2020/12/13 06:47:01;;;;;;;13.88;4.68;;;22.40;62.20;;;;;;5083940;28;20054;-72
2020/12/13 06:50:07;;;;;;;14.30;3.35;;;22.50;61.80;;;;;;5083414;28;20020;-73
2020/12/13 06:53:13;;;;;;;14.65;4.30;;;22.50;62.50;;;;;;5084706;28;20055;-71
2020/12/13 06:56:28;;;;;;;12.13;3.95;;;22.60;62.80;;;;;;5084179;28;20032;-72
2020/12/13 06:59:34;;;;;;;14.27;2.97;;;22.50;63.20;;;;;;5084638;28;20016;-73
2020/12/13 07:02:38;;;;;;;14.40;5.68;;;22.50;63.00;;;;;;5081795;28;20039;-71
2020/12/13 07:05:58;;;;;;;5.30;2.38;;;22.50;62.90;;;;;;5086174;28;20508;-72
2020/12/13 07:09:04;;;;;;;8.57;2.83;;;22.60;62.70;;;;;;5072212;28;20440;-71
2020/12/13 07:12:10;;;;;;;14.43;3.70;;;22.60;62.30;;;;;;5087019;28;20070;-74
2020/12/13 07:15:25;;;;;;;11.15;2.38;;;22.70;60.00;;;;;;5090423;28;20059;-73
2020/12/13 07:18:32;;;;;;;9.75;2.35;;;22.80;60.50;;;;;;5087849;28;20103;-71
2020/12/13 07:21:38;;;;;;;12.43;2.05;;;22.90;58.30;;;;;;5086294;28;20477;-71
2020/12/13 07:24:44;;;;;;;10.00;4.18;;;23.00;57.30;;;;;;5083870;28;20048;-71
2020/12/13 07:27:50;;;;;;;8.02;2.83;;;23.00;56.60;;;;;;5086270;28;20073;-71
2020/12/13 07:30:16;;;;;;;9.30;3.72;;;23.00;56.80;;;;;;5081999;28;20537;-72
2020/12/13 07:32:43;;;;;;;13.55;3.30;;;23.00;56.80;;;;;;5081069;28;20111;-72
2020/12/13 07:35:14;;;;;;;10.25;3.30;;;23.00;56.80;;;;;;5082605;28;20070;-73
2020/12/13 07:37:42;;;;;;;8.40;2.92;;;23.00;56.90;;;;;;5079519;28;20020;-72
2020/12/13 07:40:13;;;;;;;54.42;7.13;;;23.00;56.60;;;;;;5079728;28;20562;-73
2020/12/13 07:42:52;;;;;;;21.48;5.15;;;23.10;56.30;;;;;;5080610;28;20048;-73
2020/12/13 07:45:58;;;;;;;10.82;3.30;;;23.10;56.50;;;;;;5077643;28;20043;-72
2020/12/13 07:49:04;;;;;;;12.73;3.10;;;23.20;56.40;;;;;;5083891;28;20016;-74
2020/12/13 07:52:10;;;;;;;20.05;4.07;;;23.20;56.10;;;;;;5085618;28;20432;-73
2020/12/13 07:55:25;;;;;;;5.05;2.63;;;23.30;55.90;;;;;;5078656;28;20024;-77
2020/12/13 07:58:31;;;;;;;6.22;2.05;;;23.30;55.80;;;;;;5077127;28;20024;-73
2020/12/13 08:01:49;;;;;;;6.07;2.15;;;23.40;55.60;;;;;;5079255;28;20438;-74
2020/12/13 08:04:58;;;;;;;8.25;1.90;;;23.50;55.30;;;;;;5079869;28;20033;-74
2020/12/13 08:08:04;;;;;;;2.80;1.58;;;23.50;54.80;;;;;;5083697;28;20031;-76
2020/12/13 08:11:10;;;;;;;4.65;1.48;;;23.60;54.50;;;;;;5081055;28;20062;-75
2020/12/13 08:14:16;;;;;;;4.85;1.10;;;23.60;54.10;;;;;;5091745;27;20555;-72
2020/12/13 08:17:23;;;;;;;4.05;1.42;;;23.70;53.90;;;;;;5086197;28;20059;-77
2020/12/13 08:20:29;;;;;;;12.60;2.22;;;23.70;53.70;;;;;;5081682;28;20387;-75
2020/12/13 08:23:35;;;;;;;4.80;1.38;;;23.80;53.60;;;;;;5074249;28;20021;-75
2020/12/13 08:26:41;;;;;;;4.35;1.80;;;23.90;53.50;;;;;;5076056;28;20051;-77
2020/12/13 08:29:47;;;;;;;3.95;1.30;;;23.90;52.90;;;;;;5080631;28;20020;-75
2020/12/13 08:32:55;;;;;;;5.65;1.83;;;24.00;52.30;;;;;;5077681;28;20032;-77
2020/12/13 08:35:23;;;;;;;3.40;1.10;;;24.10;51.90;;;;;;5078062;28;20098;-76
2020/12/13 08:38:00;;;;;;;6.03;1.65;;;24.10;51.60;;;;;;5082700;28;20020;-76
2020/12/13 08:40:46;;;;;;;3.45;1.30;;;24.10;51.50;;;;;;5084787;28;20126;-76
2020/12/13 08:43:17;;;;;;;8.45;2.15;;;24.10;51.10;;;;;;5076461;28;20048;-76
2020/12/13 08:45:52;;;;;;;4.20;0.98;;;24.20;50.90;;;;;;5081475;28;20031;-78
2020/12/13 08:48:24;;;;;;;;;;;24.20;50.90;;;;;;5082334;28;20501;-77
2020/12/13 08:51:07;;;;;;;6.43;1.27;;;24.30;51.10;;;;;;5082794;28;19908;-76
2020/12/13 08:54:15;;;;;;;6.13;1.30;;;24.30;51.20;;;;;;5072776;28;20079;-74
2020/12/13 08:57:21;;;;;;;3.13;2.03;;;24.30;51.50;;;;;;5070655;28;20107;-77
2020/12/13 09:00:30;;;;;;;5.05;2.28;;;24.40;52.00;;;;;;5073621;28;20075;-73
2020/12/13 09:03:40;;;;;;;7.10;1.80;;;24.40;52.20;;;;;;5083012;28;20064;-76
2020/12/13 09:06:29;;;;;;;3.42;1.30;;;24.40;52.70;;;;;;5073703;28;20028;-75
2020/12/13 09:09:13;;;;;;;6.70;2.40;;;24.50;53.00;;;;;;5075926;28;20096;-75
2020/12/13 09:11:42;;;;;;;4.55;1.27;;;24.60;53.30;;;;;;5075605;28;20032;-75
2020/12/13 09:14:08;;;;;;;5.40;1.80;;;24.60;53.30;;;;;;5078003;28;20025;-74
2020/12/13 09:16:36;;;;;;;7.50;1.95;;;24.60;53.40;;;;;;5078847;28;20063;-74
2020/12/13 09:19:13;;;;;;;6.45;1.65;;;24.70;53.60;;;;;;5075468;28;20028;-73
2020/12/13 09:21:51;;;;;;;10.27;2.05;;;24.70;53.90;;;;;;5077808;28;20039;-75
2020/12/13 09:24:21;;;;;;;5.93;1.80;;;24.80;53.90;;;;;;5078381;28;20028;-75
2020/12/13 09:27:07;;;;;;;8.48;3.95;;;24.80;53.80;;;;;;5079970;28;20024;-77
2020/12/13 09:29:36;;;;;;;5.43;1.58;;;24.80;53.90;;;;;;5078480;28;20027;-75
2020/12/13 09:32:03;;;;;;;5.15;1.55;;;24.90;54.10;;;;;;5079238;28;20131;-74
2020/12/13 09:34:30;;;;;;;6.32;1.88;;;24.90;54.20;;;;;;5079654;28;20062;-75
2020/12/13 09:36:56;;;;;;;4.95;2.08;;;25.00;54.10;;;;;;5077770;28;20052;-74
2020/12/13 09:39:23;;;;;;;7.55;3.88;;;25.00;53.90;;;;;;5079332;28;20024;-75
2020/12/13 09:41:49;;;;;;;4.35;1.95;;;25.00;53.60;;;;;;5078581;28;20086;-76
2020/12/13 09:44:16;;;;;;;4.07;1.88;;;25.10;53.50;;;;;;5080443;28;20099;-76
2020/12/13 09:46:43;;;;;;;3.58;1.40;;;25.10;53.40;;;;;;5084750;28;20032;-75
2020/12/13 09:49:09;;;;;;;7.68;2.22;;;25.20;53.20;;;;;;5083275;28;20078;-74
2020/12/13 09:51:36;;;;;;;4.53;2.50;;;25.20;52.50;;;;;;5081238;28;20032;-72
2020/12/13 09:54:02;;;;;;;2.63;1.80;;;25.20;52.50;;;;;;5083330;28;20521;-76
2020/12/13 09:56:29;;;;;;;6.07;1.83;;;25.20;52.50;;;;;;5082109;28;20051;-73
2020/12/13 09:58:55;;;;;;;4.13;1.90;;;25.20;52.30;;;;;;5085640;28;20024;-73
2020/12/13 10:01:22;;;;;;;3.97;1.40;;;25.30;52.30;;;;;;5081222;28;20062;-73
2020/12/13 10:03:51;;;;;;;3.83;1.33;;;25.30;52.40;;;;;;5082332;28;20012;-72
2020/12/13 10:06:30;;;;;;;3.30;1.35;;;25.30;52.40;;;;;;5084321;28;20441;-72
2020/12/13 10:09:19;;;;;;;5.55;1.35;;;25.40;52.50;;;;;;5084170;28;20028;-74
2020/12/13 10:11:45;;;;;;;3.70;1.50;;;25.40;52.60;;;;;;5086432;28;20047;-72
2020/12/13 10:14:13;;;;;;;3.80;1.73;;;25.40;52.60;;;;;;5083054;28;20024;-76
2020/12/13 10:16:42;;;;;;;6.93;1.85;;;25.50;52.70;;;;;;5084612;28;20028;-77
2020/12/13 10:19:09;;;;;;;7.43;2.33;;;25.50;52.80;;;;;;5081047;28;20012;-75
2020/12/13 10:21:36;;;;;;;8.07;1.92;;;25.60;53.00;;;;;;5084703;28;20482;-71
2020/12/13 10:24:04;;;;;;;7.25;1.27;;;25.60;52.80;;;;;;5078392;28;20056;-72
2020/12/13 10:26:35;;;;;;;4.40;2.13;;;25.60;52.60;;;;;;5080766;28;20028;-71
2020/12/13 10:29:01;;;;;;;7.43;1.83;;;25.70;52.20;;;;;;5079301;28;20059;-71
2020/12/13 10:31:36;;;;;;;5.10;2.05;;;25.80;52.20;;;;;;5080488;28;20405;-74
2020/12/13 10:34:06;;;;;;;8.18;2.05;;;25.80;52.40;;;;;;5080810;28;20497;-73
2020/12/13 10:36:37;;;;;;;7.03;1.90;;;25.80;52.50;;;;;;5082545;28;20023;-73
2020/12/13 10:39:05;;;;;;;6.22;1.25;;;25.90;52.50;;;;;;5087289;28;20166;-75
2020/12/13 10:41:32;;;;;;;5.10;1.77;;;25.90;52.50;;;;;;5080355;28;20143;-77
2020/12/13 10:43:59;;;;;;;4.88;1.52;;;25.90;52.40;;;;;;5087144;28;20648;-72
2020/12/13 10:46:26;;;;;;;5.15;1.38;;;26.00;52.40;;;;;;5086372;28;20069;-76
2020/12/13 10:48:53;;;;;;;3.45;1.52;;;26.10;52.40;;;;;;5086846;28;20475;-74
2020/12/13 10:51:19;;;;;;;6.15;1.63;;;26.10;52.30;;;;;;5088067;28;20041;-77
2020/12/13 10:53:49;;;;;;;2.25;1.13;;;26.20;52.10;;;;;;5089267;28;20024;-76
2020/12/13 10:56:16;;;;;;;4.13;1.20;;;26.20;52.00;;;;;;5090123;28;20032;-75
2020/12/13 10:58:43;;;;;;;2.97;1.10;;;26.20;51.90;;;;;;5085403;28;20088;-73
2020/12/13 11:01:13;;;;;;;4.47;1.02;;;26.30;51.90;;;;;;5086101;28;20505;-74
2020/12/13 11:03:40;;;;;;;4.18;1.60;;;26.30;51.50;;;;;;5091614;28;20363;-74
2020/12/13 11:06:10;;;;;;;8.65;2.35;;;26.30;51.30;;;;;;5087681;28;20424;-74
2020/12/13 11:08:37;;;;;;;7.60;1.33;;;26.40;51.40;;;;;;5086016;28;20028;-75
2020/12/13 11:11:05;;;;;;;5.47;2.53;;;26.40;51.40;;;;;;5087672;28;20020;-73
2020/12/13 11:13:32;;;;;;;7.65;1.75;;;26.40;51.10;;;;;;5086937;28;20085;-74
2020/12/13 11:15:59;;;;;;;3.35;1.10;;;26.40;50.70;;;;;;5086117;28;20046;-74
2020/12/13 11:18:30;;;;;;;6.78;1.50;;;26.50;50.50;;;;;;5088097;28;20020;-75
2020/12/13 11:21:06;;;;;;;3.95;1.50;;;26.50;50.30;;;;;;5090429;28;20036;-76
2020/12/13 11:23:32;;;;;;;7.28;2.00;;;26.50;50.30;;;;;;5087028;28;20012;-76
2020/12/13 11:25:59;;;;;;;7.15;1.40;;;26.60;50.30;;;;;;5088837;28;20465;-75
2020/12/13 11:28:25;;;;;;;6.93;5.93;;;26.60;50.10;;;;;;5084618;28;20489;-74
2020/12/13 11:30:52;;;;;;;3.13;2.75;;;26.60;49.90;;;;;;5087853;28;20593;-73
2020/12/13 11:33:20;;;;;;;3.35;2.25;;;26.70;49.70;;;;;;5087771;28;20024;-76
2020/12/13 11:35:46;;;;;;;3.03;1.67;;;26.80;49.10;;;;;;5086366;28;20020;-74
2020/12/13 11:38:13;;;;;;;2.72;1.50;;;26.80;48.40;;;;;;5087641;28;20073;-75
2020/12/13 11:40:39;;;;;;;3.03;1.70;;;26.90;47.60;;;;;;5090036;28;20495;-74
2020/12/13 11:43:06;;;;;;;3.70;1.25;;;26.90;46.80;;;;;;5088593;28;20479;-74
2020/12/13 11:45:32;;;;;;;3.83;1.48;;;27.00;46.40;;;;;;5083599;28;20043;-73
2020/12/13 11:48:00;;;;;;;3.60;0.90;;;27.00;46.20;;;;;;5086850;28;20029;-73
2020/12/13 11:50:26;;;;;;;3.55;0.82;;;27.00;45.90;;;;;;5086347;28;20486;-74
2020/12/13 11:52:53;;;;;;;1.83;0.50;;;27.10;45.70;;;;;;5089185;28;20635;-73
2020/12/13 11:55:20;;;;;;;4.95;1.05;;;27.10;45.70;;;;;;5089002;28;20028;-74
2020/12/13 11:57:47;;;;;;;3.25;1.23;;;27.10;45.50;;;;;;5085145;28;20016;-73
2020/12/13 12:00:13;;;;;;;1.48;0.88;;;27.20;45.30;;;;;;5091405;28;20020;-74
2020/12/13 12:02:41;;;;;;;3.10;0.77;;;27.20;45.20;;;;;;5086423;28;20028;-75
2020/12/13 12:05:07;;;;;;;6.03;1.10;;;27.30;45.30;;;;;;5084882;28;20028;-74
2020/12/13 12:07:34;;;;;;;2.42;1.02;;;27.30;45.20;;;;;;5085826;28;20554;-75
2020/12/13 12:10:00;;;;;;;3.55;0.82;;;27.30;45.00;;;;;;5090500;28;20028;-74
2020/12/13 12:12:27;;;;;;;2.30;1.10;;;27.30;44.80;;;;;;5087527;28;20024;-74
2020/12/13 12:14:53;;;;;;;1.35;0.70;;;27.40;44.60;;;;;;5089683;28;20534;-75
2020/12/13 12:17:19;;;;;;;2.42;0.98;;;27.40;44.10;;;;;;5087939;28;20463;-74
2020/12/13 12:19:46;;;;;;;4.05;1.20;;;27.40;43.60;;;;;;5088060;28;20028;-74
2020/12/13 12:22:14;;;;;;;4.10;0.70;;;27.40;42.80;;;;;;5085030;28;20028;-73
2020/12/13 12:24:41;;;;;;;2.97;1.35;;;27.40;42.00;;;;;;5083637;28;20032;-74
2020/12/13 12:27:08;;;;;;;3.05;0.80;;;27.40;41.60;;;;;;5087227;28;20038;-74
2020/12/13 12:29:36;;;;;;;5.32;3.25;;;27.40;41.60;;;;;;5083359;28;20016;-74
2020/12/13 12:32:02;;;;;;;5.75;2.08;;;27.40;42.00;;;;;;5088354;28;20036;-74
2020/12/13 12:34:29;;;;;;;6.90;2.20;;;27.40;42.60;;;;;;5089582;28;20031;-76
2020/12/13 12:36:55;;;;;;;2.80;1.20;;;27.40;43.00;;;;;;5082531;28;20083;-73
2020/12/13 12:39:22;;;;;;;3.30;0.80;;;27.50;43.40;;;;;;5086434;28;20025;-75
2020/12/13 12:41:49;;;;;;;3.60;1.83;;;27.50;43.40;;;;;;5085945;28;20028;-73
2020/12/13 12:44:15;;;;;;;4.80;1.25;;;27.50;43.70;;;;;;5085066;28;20024;-74
2020/12/13 12:46:42;;;;;;;7.07;1.70;;;27.50;44.10;;;;;;5086198;28;20494;-75
2020/12/13 12:49:08;;;;;;;3.50;0.70;;;27.50;44.40;;;;;;5088217;28;20535;-78
2020/12/13 12:51:35;;;;;;;2.03;0.70;;;27.50;44.70;;;;;;5083536;28;20367;-76
2020/12/13 12:54:01;;;;;;;1.58;0.70;;;27.50;45.00;;;;;;5087181;28;20020;-74
2020/12/13 12:56:28;;;;;;;4.40;0.93;;;27.50;45.00;;;;;;5089570;28;20047;-75
2020/12/13 12:58:59;;;;;;;3.70;0.70;;;27.40;45.00;;;;;;5086381;28;20487;-74
2020/12/13 13:01:42;;;;;;;6.05;0.93;;;27.40;45.40;;;;;;5083423;28;20037;-74
2020/12/13 13:04:12;;;;;;;8.63;1.40;;;27.50;45.80;;;;;;5079387;28;20055;-74
2020/12/13 13:06:55;;;;;;;2.13;1.08;;;27.50;46.00;;;;;;5086009;28;20019;-72
2020/12/13 13:11:49;;;;;;;6.63;1.00;;;27.50;45.70;;;;;;5087709;28;20019;-72
2020/12/13 13:14:16;;;;;;;2.53;0.70;;;27.50;45.40;;;;;;5088169;28;20024;-73
2020/12/13 13:16:46;;;;;;;3.97;0.80;;;27.50;45.40;;;;;;5086829;28;20024;-72
2020/12/13 13:19:19;;;;;;;6.18;1.02;;;27.50;45.50;;;;;;5083304;28;20047;-73
2020/12/13 13:21:46;;;;;;;6.45;1.10;;;27.50;45.40;;;;;;5084854;28;20502;-75
2020/12/13 13:24:14;;;;;;;3.50;0.73;;;27.50;45.30;;;;;;5085842;28;20398;-73
2020/12/13 13:26:41;;;;;;;3.20;0.77;;;27.50;45.40;;;;;;5085333;28;20110;-73
2020/12/13 13:29:08;;;;;;;1.23;0.65;;;27.50;45.50;;;;;;5084662;28;20498;-74
2020/12/13 13:31:34;;;;;;;3.55;0.93;;;27.50;45.60;;;;;;5086379;28;20051;-73
2020/12/13 13:34:01;;;;;;;6.95;1.80;;;27.50;45.80;;;;;;5081741;28;20016;-72
2020/12/13 13:36:30;;;;;;;4.75;1.10;;;27.50;46.00;;;;;;5083252;28;20031;-74
2020/12/13 13:38:57;;;;;;;7.50;1.23;;;27.40;45.90;;;;;;5079856;28;20032;-75
2020/12/13 13:41:34;;;;;;;5.53;1.33;;;27.40;46.60;;;;;;5086898;28;20744;-73
2020/12/13 13:44:11;;;;;;;3.13;0.80;;;27.40;46.10;;;;;;5086074;28;20032;-74
2020/12/13 13:47:28;;;;;;;2.95;0.93;;;27.40;46.30;;;;;;5078630;28;20036;-74
2020/12/13 13:50:01;;;;;;;2.53;1.10;;;27.30;46.20;;;;;;5083311;28;20025;-74
2020/12/13 13:52:31;;;;;;;3.58;0.77;;;27.30;46.40;;;;;;5085104;28;20032;-73
2020/12/13 13:55:04;;;;;;;2.83;1.38;;;27.30;46.50;;;;;;5081766;28;20430;-74
2020/12/13 13:57:33;;;;;;;2.10;0.80;;;27.30;46.50;;;;;;5085020;28;20498;-75
2020/12/13 14:00:05;;;;;;;4.75;0.70;;;27.30;46.50;;;;;;5084067;28;20058;-75
2020/12/13 14:02:31;;;;;;;9.30;2.60;;;27.30;46.50;;;;;;5082146;28;20039;-75
2020/12/13 14:04:58;;;;;;;2.60;0.77;;;27.30;46.30;;;;;;5081524;28;20471;-76
2020/12/13 14:07:51;;;;;;;1.83;0.60;;;27.30;46.30;;;;;;5084782;28;20024;-77
2020/12/13 14:10:17;;;;;;;3.15;1.13;;;27.30;46.20;;;;;;5084178;28;21831;-75
2020/12/13 14:12:44;;;;;;;5.07;1.42;;;27.30;46.10;;;;;;5081116;28;20514;-76
2020/12/13 14:15:11;;;;;;;5.13;0.95;;;27.30;46.10;;;;;;5084182;28;20034;-75
2020/12/13 14:17:37;;;;;;;2.75;0.70;;;27.30;46.10;;;;;;5082066;28;20028;-76
2020/12/13 14:20:04;;;;;;;5.55;1.00;;;27.30;46.10;;;;;;5083920;28;20063;-77
2020/12/13 14:22:31;;;;;;;5.90;1.45;;;27.30;46.00;;;;;;5085447;28;20031;-77
2020/12/13 14:24:58;;;;;;;3.55;2.95;;;27.20;45.80;;;;;;5082419;28;22299;-75
2020/12/13 14:27:24;;;;;;;4.97;3.30;;;27.30;45.90;;;;;;5084040;28;20035;-74
2020/12/13 14:29:51;;;;;;;2.47;1.80;;;27.20;45.80;;;;;;5087365;28;20028;-75
2020/12/13 14:32:20;;;;;;;3.45;1.30;;;27.20;45.50;;;;;;5083224;28;20059;-75
2020/12/13 14:34:46;;;;;;;2.10;0.93;;;27.20;45.40;;;;;;5077996;28;20043;-74
2020/12/13 14:37:13;;;;;;;1.92;0.82;;;27.20;45.50;;;;;;5084804;28;20031;-73
2020/12/13 14:40:20;;;;;;;1.90;0.90;;;27.20;45.60;;;;;;5084604;28;20073;-75